createdAt,value
2022-12-22T00:01:32.878Z,90.00
2022-12-22T00:04:53.273Z,93.30
2022-12-22T00:08:13.573Z,91.90
2022-12-22T00:11:33.992Z,93.70
2022-12-22T00:14:54.875Z,93.60
2022-12-22T00:18:15.362Z,94.60
2022-12-22T00:21:35.563Z,93.80
2022-12-22T00:24:56.097Z,88.10
2022-12-22T00:28:16.885Z,84.10
2022-12-22T00:31:37.808Z,79.50
2022-12-22T00:35:00.185Z,85.00
2022-12-22T00:38:20.612Z,86.20
2022-12-22T00:41:41.292Z,83.90
2022-12-22T00:45:01.890Z,87.50
2022-12-22T00:48:23.209Z,83.30
2022-12-22T00:51:43.876Z,81.90
2022-12-22T00:55:04.439Z,81.00
2022-12-22T00:58:28.177Z,84.80
2022-12-22T01:01:48.904Z,82.80
2022-12-22T01:05:09.785Z,83.20
2022-12-22T01:08:31.119Z,79.40
2022-12-22T01:11:52.366Z,84.90
2022-12-22T01:15:13.214Z,78.10
2022-12-22T01:18:34.325Z,78.90
2022-12-22T01:21:54.644Z,75.10
2022-12-22T01:25:15.202Z,75.80
2022-12-22T01:28:36.329Z,83.30
2022-12-22T01:31:57.248Z,81.20
2022-12-22T01:35:17.512Z,92.00
2022-12-22T01:38:38.527Z,93.10
2022-12-22T01:41:59.208Z,101.80
2022-12-22T01:45:24.804Z,109.70
2022-12-22T01:48:48.027Z,107.70
2022-12-22T01:52:08.272Z,114.00
2022-12-22T01:55:32.419Z,111.10
2022-12-22T01:58:55.659Z,109.50
2022-12-22T02:02:17.177Z,112.10
2022-12-22T02:05:38.279Z,110.00
2022-12-22T02:09:03.786Z,105.50
2022-12-22T02:12:32.548Z,95.30
2022-12-22T02:16:07.253Z,98.30
2022-12-22T02:19:56.338Z,95.30
2022-12-22T02:23:38.222Z,101.20
2022-12-22T02:27:04.639Z,96.40
2022-12-22T02:30:28.482Z,99.40
2022-12-22T02:33:48.967Z,91.60
2022-12-22T02:37:21.400Z,87.50
2022-12-22T02:40:50.890Z,86.20
2022-12-22T02:44:34.117Z,87.10
2022-12-22T02:48:40.976Z,82.70
2022-12-22T02:52:10.468Z,78.50
2022-12-22T02:55:31.140Z,78.90
2022-12-22T02:58:52.315Z,76.80
2022-12-22T03:02:13.274Z,74.30
2022-12-22T03:05:33.673Z,75.10
2022-12-22T03:08:53.901Z,81.50
2022-12-22T03:12:14.229Z,79.40
2022-12-22T03:15:34.951Z,84.70
2022-12-22T03:18:55.615Z,94.50
2022-12-22T03:22:16.244Z,78.30
2022-12-22T03:25:36.612Z,85.70
2022-12-22T03:28:38.294Z,87.40
2022-12-22T03:34:42.015Z,93.30
2022-12-22T03:40:45.283Z,95.60
2022-12-22T03:44:05.768Z,86.90
2022-12-22T03:47:07.512Z,85.70
2022-12-22T03:53:11.103Z,92.30
2022-12-22T03:56:12.814Z,93.00
2022-12-22T03:59:14.855Z,84.30
2022-12-22T04:02:16.825Z,86.30
2022-12-22T04:05:19.081Z,90.10
2022-12-22T04:08:20.705Z,86.80
2022-12-22T04:11:41.168Z,87.20
2022-12-22T04:14:42.804Z,82.30
2022-12-22T04:17:44.487Z,82.40
2022-12-22T04:20:46.123Z,76.40
2022-12-22T04:23:51.303Z,80.20
2022-12-22T04:26:53.194Z,81.90
2022-12-22T04:29:55.192Z,86.40
2022-12-22T04:35:58.612Z,85.70
2022-12-22T04:42:01.845Z,81.20
2022-12-22T04:48:05.788Z,74.20
2022-12-22T04:51:07.557Z,68.70
2022-12-22T04:57:11.488Z,65.90
2022-12-22T05:00:13.730Z,68.10
2022-12-22T05:03:15.633Z,66.30
2022-12-22T05:06:17.408Z,67.70
2022-12-22T05:12:39.220Z,66.10
2022-12-22T05:15:41.472Z,61.60
2022-12-22T05:18:45.205Z,69.10
2022-12-22T05:21:46.963Z,67.80
2022-12-22T05:27:51.017Z,69.20
2022-12-22T05:30:53.660Z,65.10
2022-12-22T05:33:55.524Z,61.90
2022-12-22T05:39:58.962Z,68.00
2022-12-22T05:46:07.861Z,65.90
2022-12-22T05:49:09.695Z,63.60
2022-12-22T05:52:11.436Z,61.50
2022-12-22T05:58:15.188Z,70.20
2022-12-22T06:01:16.872Z,70.40
2022-12-22T06:04:18.742Z,67.70
2022-12-22T06:07:20.686Z,62.40
2022-12-22T06:13:24.888Z,65.10
2022-12-22T06:16:26.717Z,68.10
2022-12-22T06:22:30.237Z,77.80
2022-12-22T06:25:32.216Z,74.30
2022-12-22T06:28:33.939Z,68.00
2022-12-22T06:34:37.682Z,65.00
2022-12-22T06:40:41.060Z,65.00
2022-12-22T06:43:42.723Z,68.10
2022-12-22T06:49:46.410Z,70.20
2022-12-22T06:55:49.865Z,65.10
2022-12-22T06:58:51.598Z,66.70
2022-12-22T07:01:53.517Z,72.50
2022-12-22T07:04:55.301Z,78.00
2022-12-22T07:11:06.419Z,71.30
2022-12-22T07:14:08.228Z,69.90
2022-12-22T07:20:12.227Z,58.70
2022-12-22T07:23:14.067Z,61.20
2022-12-22T07:29:17.555Z,64.00
2022-12-22T07:32:19.278Z,67.20
2022-12-22T07:38:22.508Z,66.40
2022-12-22T07:41:42.783Z,69.00
2022-12-22T07:44:44.565Z,68.10
2022-12-22T07:50:48.217Z,67.40
2022-12-22T07:56:51.603Z,65.30
2022-12-22T08:02:57.087Z,57.90
2022-12-22T08:05:59.807Z,60.30
2022-12-22T08:09:02.558Z,60.60
2022-12-22T08:12:04.552Z,64.60
2022-12-22T08:15:07.971Z,60.90
2022-12-22T08:18:09.719Z,63.70
2022-12-22T08:24:13.025Z,63.90
2022-12-22T08:27:23.905Z,63.40
2022-12-22T08:30:27.767Z,69.90
2022-12-22T08:36:34.616Z,68.00
2022-12-22T08:39:38.406Z,66.70
2022-12-22T08:42:40.529Z,66.60
2022-12-22T08:45:43.028Z,68.30
2022-12-22T08:48:44.694Z,73.70
2022-12-22T08:54:48.287Z,69.90
2022-12-22T08:57:55.826Z,74.50
2022-12-22T09:00:58.371Z,74.50
2022-12-22T09:04:00.483Z,64.30
2022-12-22T09:07:05.249Z,62.90
2022-12-22T09:10:08.806Z,63.90
2022-12-22T09:13:10.545Z,65.50
2022-12-22T09:16:12.405Z,65.70
2022-12-22T09:19:14.489Z,57.30
2022-12-22T09:22:19.195Z,57.60
2022-12-22T09:25:23.576Z,57.90
2022-12-22T09:28:25.706Z,57.50
2022-12-22T09:31:28.348Z,61.30
2022-12-22T09:34:30.715Z,58.90
2022-12-22T09:37:32.546Z,62.20
2022-12-22T09:40:34.580Z,56.60
2022-12-22T09:43:37.024Z,57.30
2022-12-22T09:46:38.915Z,57.40
2022-12-22T09:49:40.624Z,59.70
2022-12-22T09:55:47.314Z,68.80
2022-12-22T09:58:49.175Z,73.10
2022-12-22T10:02:39.488Z,74.70
2022-12-22T10:06:16.584Z,77.50
2022-12-22T10:12:55.098Z,49.80
2022-12-22T10:15:56.904Z,50.20
2022-12-22T10:19:07.542Z,48.40
2022-12-22T10:22:25.328Z,47.90
2022-12-22T10:25:39.947Z,47.50
2022-12-22T10:28:59.027Z,49.60
2022-12-22T10:32:16.432Z,49.30
2022-12-22T10:35:18.231Z,50.70
2022-12-22T10:38:36.748Z,50.60
2022-12-22T10:41:43.280Z,45.20
2022-12-22T10:44:46.839Z,47.30
2022-12-22T10:47:51.424Z,72.80
2022-12-22T10:50:53.398Z,52.00
2022-12-22T10:53:56.272Z,41.00
2022-12-22T10:57:22.952Z,42.00
2022-12-22T11:00:26.652Z,42.50
2022-12-22T11:03:31.279Z,117.90
2022-12-22T11:06:32.995Z,103.00
2022-12-22T11:09:35.693Z,70.70
2022-12-22T11:12:56.101Z,105.50
2022-12-22T11:16:03.756Z,104.20
2022-12-22T11:19:35.014Z,51.90
2022-12-22T11:22:47.323Z,49.50
2022-12-22T11:26:10.974Z,53.30
2022-12-22T11:29:32.349Z,65.10
2022-12-22T11:32:56.064Z,52.00
2022-12-22T11:36:01.751Z,51.30
2022-12-22T11:39:15.540Z,50.80
2022-12-22T11:42:30.021Z,46.20
2022-12-22T11:45:42.861Z,46.60
2022-12-22T11:49:00.048Z,46.30
2022-12-22T11:52:04.865Z,44.10
2022-12-22T11:55:30.350Z,43.00
2022-12-22T11:58:44.847Z,43.10
2022-12-22T12:02:15.260Z,45.20
2022-12-22T12:05:43.548Z,45.00
2022-12-22T12:08:58.903Z,44.70
2022-12-22T12:12:03.712Z,43.90
2022-12-22T12:15:14.675Z,37.60
2022-12-22T12:18:35.108Z,35.30
2022-12-22T12:21:52.210Z,36.10
2022-12-22T12:25:02.181Z,37.50
2022-12-22T12:28:19.675Z,37.60
2022-12-22T12:31:26.545Z,38.90
2022-12-22T12:34:32.948Z,38.70
2022-12-22T12:37:38.993Z,39.40
2022-12-22T12:41:06.890Z,39.00
2022-12-22T12:44:18.453Z,39.50
2022-12-22T12:47:31.849Z,43.30
2022-12-22T12:50:34.758Z,56.40
2022-12-22T12:54:15.225Z,56.10
2022-12-22T12:57:38.543Z,50.70
2022-12-22T13:00:47.893Z,50.00
2022-12-22T13:04:03.089Z,44.00
2022-12-22T13:07:06.012Z,42.60
2022-12-22T13:10:18.589Z,41.90
2022-12-22T13:13:23.472Z,45.00
2022-12-22T13:16:27.414Z,43.90
2022-12-22T13:19:30.264Z,46.80
2022-12-22T13:22:33.068Z,59.00
2022-12-22T13:25:47.897Z,54.10
2022-12-22T13:29:01.274Z,57.90
2022-12-22T13:32:14.659Z,52.70
2022-12-22T13:35:34.779Z,55.90
2022-12-22T13:38:38.462Z,61.10
2022-12-22T13:41:42.131Z,62.20
2022-12-22T13:44:44.130Z,64.80
2022-12-22T13:47:47.286Z,41.50
2022-12-22T13:50:52.364Z,35.50
2022-12-22T13:54:12.924Z,36.10
2022-12-22T13:57:19.161Z,37.60
2022-12-22T14:00:25.877Z,44.80
2022-12-22T14:03:58.033Z,49.30
2022-12-22T14:06:49.547Z,47.40
2022-12-22T14:09:56.234Z,47.60
2022-12-22T14:12:58.118Z,47.90
2022-12-22T14:16:02.056Z,44.80
2022-12-22T14:19:05.410Z,41.20
2022-12-22T14:22:13.471Z,40.20
2022-12-22T14:25:24.501Z,41.20
2022-12-22T14:28:40.314Z,41.10
2022-12-22T14:31:52.377Z,43.30
2022-12-22T14:34:54.689Z,47.50
2022-12-22T14:38:19.342Z,47.30
2022-12-22T14:41:44.189Z,51.30
2022-12-22T14:44:47.018Z,53.10
2022-12-22T14:47:48.893Z,51.80
2022-12-22T14:50:52.160Z,51.80
2022-12-22T14:53:56.720Z,50.20
2022-12-22T14:57:15.855Z,48.70
2022-12-22T15:00:24.580Z,50.50
2022-12-22T15:03:37.755Z,45.80
2022-12-22T15:06:45.985Z,43.70
2022-12-22T15:10:14.533Z,47.10
2022-12-22T15:13:21.768Z,49.50
2022-12-22T15:16:23.937Z,50.50
2022-12-22T15:19:29.393Z,54.70
2022-12-22T15:22:31.184Z,56.90
2022-12-22T15:28:34.512Z,49.10
2022-12-22T15:31:37.514Z,55.90
2022-12-22T15:34:39.399Z,57.10
2022-12-22T15:37:41.202Z,75.90
2022-12-22T15:44:00.148Z,66.40
2022-12-22T15:47:02.397Z,61.00
2022-12-22T15:50:04.935Z,59.20
2022-12-22T15:53:09.356Z,59.60
2022-12-22T15:56:17.683Z,59.20
2022-12-22T15:59:21.948Z,58.10
2022-12-22T16:02:23.740Z,59.40
2022-12-22T16:05:25.547Z,59.20
2022-12-22T16:11:29.918Z,66.80
2022-12-22T16:14:38.540Z,72.40
2022-12-22T16:17:41.945Z,76.90
2022-12-22T16:23:47.288Z,58.30
2022-12-22T16:26:48.998Z,53.00
2022-12-22T16:32:53.937Z,63.30
2022-12-22T16:38:57.423Z,62.90
2022-12-22T16:42:00.509Z,58.00
2022-12-22T16:45:04.506Z,62.60
2022-12-22T16:48:10.364Z,75.50
2022-12-22T16:51:18.272Z,109.40
2022-12-22T16:54:20.097Z,90.90
2022-12-22T16:57:21.871Z,93.40
2022-12-22T17:03:27.582Z,84.10
2022-12-22T17:06:29.597Z,88.50
2022-12-22T17:09:42.496Z,92.90
2022-12-22T17:12:44.188Z,91.20
2022-12-22T17:18:48.293Z,90.50
2022-12-22T17:21:50.759Z,100.70
2022-12-22T17:24:54.694Z,97.30
2022-12-22T17:27:57.464Z,102.60
2022-12-22T17:30:59.396Z,97.80
2022-12-22T17:34:01.241Z,94.60
2022-12-22T17:40:05.333Z,86.70
2022-12-22T17:43:09.577Z,78.40
2022-12-22T17:46:16.470Z,70.80
2022-12-22T17:49:20.171Z,53.30
2022-12-22T17:52:23.784Z,32.50
2022-12-22T17:56:06.013Z,23.30
2022-12-22T17:58:50.126Z,19.90
2022-12-22T18:01:51.988Z,17.30
2022-12-22T18:04:53.887Z,14.70
2022-12-22T18:07:59.344Z,13.20
2022-12-22T18:11:02.118Z,14.70
2022-12-22T18:14:04.173Z,15.40
2022-12-22T18:17:05.884Z,13.40
2022-12-22T18:23:20.904Z,13.30
2022-12-22T18:26:30.303Z,13.40
2022-12-22T18:29:31.995Z,12.40
2022-12-22T18:35:35.968Z,12.20
2022-12-22T18:38:37.797Z,11.80
2022-12-22T18:41:39.627Z,12.30
2022-12-22T18:44:41.404Z,13.60
2022-12-22T18:47:43.128Z,13.50
2022-12-22T18:53:46.787Z,13.30
2022-12-22T18:56:49.465Z,13.70
2022-12-22T18:59:51.359Z,13.70
2022-12-22T19:02:54.966Z,15.50
2022-12-22T19:05:58.035Z,16.60
2022-12-22T19:08:59.892Z,14.80
2022-12-22T19:12:01.589Z,14.70
2022-12-22T19:18:06.247Z,15.10
2022-12-22T19:21:12.761Z,14.80
2022-12-22T19:24:14.545Z,15.50
2022-12-22T19:27:27.032Z,14.90
2022-12-22T19:30:29.194Z,15.50
2022-12-22T19:33:42.448Z,17.60
2022-12-22T19:36:44.093Z,17.20
2022-12-22T19:45:52.984Z,17.60
2022-12-22T19:48:56.572Z,20.20
2022-12-22T19:51:58.732Z,21.50
2022-12-22T19:55:00.969Z,20.50
2022-12-22T19:58:02.965Z,20.00
2022-12-22T20:01:05.242Z,19.60
2022-12-22T20:04:13.431Z,17.70
2022-12-22T20:07:16.612Z,18.60
2022-12-22T20:10:18.666Z,16.10
2022-12-22T20:13:23.739Z,17.00
2022-12-22T20:16:25.522Z,17.00
2022-12-22T20:19:27.314Z,14.30
2022-12-22T20:22:29.165Z,15.50
2022-12-22T20:25:36.751Z,15.00
2022-12-22T20:28:39.447Z,14.70
2022-12-22T20:31:41.170Z,16.20
2022-12-22T20:37:45.079Z,14.40
2022-12-22T20:40:49.343Z,13.50
2022-12-22T20:43:51.928Z,13.70
2022-12-22T20:46:53.733Z,15.30
2022-12-22T20:49:55.454Z,17.00
2022-12-22T20:56:00.669Z,16.30
2022-12-22T20:59:21.834Z,17.00
2022-12-22T21:02:28.017Z,20.30
2022-12-22T21:05:30.208Z,17.80
2022-12-22T21:11:34.582Z,15.80
2022-12-22T21:14:36.308Z,15.00
2022-12-22T21:20:45.285Z,14.70
2022-12-22T21:23:47.194Z,12.20
2022-12-22T21:26:51.712Z,13.90
2022-12-22T21:29:53.452Z,16.00
2022-12-22T21:35:58.589Z,14.60
2022-12-22T21:39:06.568Z,13.70
2022-12-22T21:42:18.645Z,14.50
2022-12-22T21:45:27.137Z,13.00
2022-12-22T21:48:30.316Z,13.00
2022-12-22T21:51:32.053Z,12.30
2022-12-22T21:57:35.937Z,12.20
2022-12-22T22:00:39.475Z,13.40
2022-12-22T22:03:41.389Z,20.30
2022-12-22T22:06:43.098Z,16.90
2022-12-22T22:12:46.823Z,14.40
2022-12-22T22:15:48.542Z,12.20
2022-12-22T22:18:50.299Z,12.60
2022-12-22T22:21:52.235Z,13.70
2022-12-22T22:24:54.003Z,14.40
2022-12-22T22:31:00.442Z,17.90
2022-12-22T22:34:02.249Z,18.40
2022-12-22T22:40:11.035Z,15.60
2022-12-22T22:43:14.096Z,16.40
2022-12-22T22:46:16.060Z,16.50
2022-12-22T22:49:21.378Z,15.40
2022-12-22T22:52:26.890Z,15.80
2022-12-22T22:55:28.571Z,16.00
2022-12-22T23:01:32.200Z,14.00
2022-12-22T23:10:41.605Z,13.30
2022-12-22T23:13:47.542Z,11.90
2022-12-22T23:16:49.308Z,13.10
2022-12-22T23:22:53.238Z,12.00
2022-12-22T23:29:02.973Z,13.10
2022-12-22T23:32:05.877Z,14.00
2022-12-22T23:35:07.863Z,18.90
2022-12-22T23:38:09.937Z,22.20
2022-12-22T23:41:13.276Z,17.40
2022-12-22T23:44:15.014Z,15.60
2022-12-22T23:50:18.521Z,15.30
2022-12-22T23:56:22.441Z,14.20
2022-12-22T23:59:24.085Z,14.60
